createdAt,value
2023-04-13T00:01:01.529Z,0.70
2023-04-13T00:03:33.590Z,0.37
2023-04-13T00:06:02.904Z,0.70
2023-04-13T00:08:32.159Z,0.50
2023-04-13T00:11:00.205Z,0.60
2023-04-13T00:13:28.228Z,0.73
2023-04-13T00:15:59.101Z,0.57
2023-04-13T00:18:27.447Z,0.40
2023-04-13T00:20:55.430Z,0.60
2023-04-13T00:23:23.473Z,0.67
2023-04-13T00:25:51.574Z,0.50
2023-04-13T00:28:19.889Z,0.57
2023-04-13T00:30:47.998Z,0.70
2023-04-13T00:33:18.062Z,0.50
2023-04-13T00:35:46.134Z,0.70
2023-04-13T00:38:14.462Z,0.53
2023-04-13T00:40:43.117Z,0.60
2023-04-13T00:43:11.716Z,1.03
2023-04-13T00:45:40.317Z,1.10
2023-04-13T00:48:11.560Z,1.00
2023-04-13T00:50:43.175Z,0.73
2023-04-13T00:53:14.020Z,0.50
2023-04-13T00:55:43.101Z,0.90
2023-04-13T00:58:13.165Z,0.80
2023-04-13T01:00:43.721Z,0.70
2023-04-13T01:03:13.034Z,0.53
2023-04-13T01:05:53.600Z,0.73
2023-04-13T01:08:30.929Z,0.50
2023-04-13T01:11:07.007Z,0.50
2023-04-13T01:13:46.694Z,0.80
2023-04-13T01:16:20.519Z,0.83
2023-04-13T01:18:54.097Z,0.50
2023-04-13T01:21:29.004Z,0.50
2023-04-13T01:24:16.974Z,0.73
2023-04-13T01:27:04.437Z,0.83
2023-04-13T01:29:37.711Z,0.87
2023-04-13T01:32:08.654Z,0.70
2023-04-13T01:34:37.883Z,0.70
2023-04-13T01:37:09.497Z,0.37
2023-04-13T01:39:38.569Z,0.60
2023-04-13T01:42:17.439Z,0.73
2023-04-13T01:44:47.564Z,0.60
2023-04-13T01:47:21.349Z,1.20
2023-04-13T01:50:04.304Z,0.90
2023-04-13T01:52:40.954Z,0.60
2023-04-13T01:55:14.149Z,0.97
2023-04-13T01:57:47.294Z,1.13
2023-04-13T02:00:20.444Z,0.67
2023-04-13T02:02:50.474Z,1.03
2023-04-13T02:05:18.848Z,0.63
2023-04-13T02:07:47.678Z,0.70
2023-04-13T02:10:16.265Z,0.60
2023-04-13T02:12:46.150Z,0.80
2023-04-13T02:15:14.596Z,0.80
2023-04-13T02:17:45.303Z,1.10
2023-04-13T02:20:13.562Z,1.00
2023-04-13T02:22:41.705Z,1.07
2023-04-13T02:25:12.388Z,1.00
2023-04-13T02:27:40.939Z,0.73
2023-04-13T02:30:11.143Z,0.97
2023-04-13T02:32:44.259Z,0.50
2023-04-13T02:35:12.476Z,0.83
2023-04-13T02:37:41.261Z,0.90
2023-04-13T02:40:13.700Z,0.70
2023-04-13T02:42:42.936Z,1.10
2023-04-13T02:45:13.857Z,1.03
2023-04-13T02:47:43.565Z,0.67
2023-04-13T02:50:13.189Z,0.50
2023-04-13T02:52:47.394Z,1.00
2023-04-13T02:55:16.600Z,1.00
2023-04-13T02:57:51.526Z,0.80
2023-04-13T03:00:20.641Z,1.10
2023-04-13T03:02:57.881Z,0.57
2023-04-13T03:05:32.568Z,0.93
2023-04-13T03:08:02.399Z,0.97
2023-04-13T03:10:31.868Z,0.90
2023-04-13T03:13:02.146Z,1.33
2023-04-13T03:15:31.618Z,0.90
2023-04-13T03:18:04.150Z,1.00
2023-04-13T03:20:34.758Z,1.00
2023-04-13T03:23:04.878Z,0.90
2023-04-13T03:25:35.921Z,0.80
2023-04-13T03:28:04.702Z,0.97
2023-04-13T03:30:38.727Z,0.87
2023-04-13T03:33:08.340Z,0.80
2023-04-13T03:35:38.950Z,0.90
2023-04-13T03:38:14.115Z,0.70
2023-04-13T03:40:45.826Z,1.03
2023-04-13T03:43:14.713Z,1.20
2023-04-13T03:45:47.079Z,0.90
2023-04-13T03:48:19.587Z,0.90
2023-04-13T03:50:48.125Z,0.73
2023-04-13T03:53:20.194Z,1.10
2023-04-13T03:55:52.135Z,1.60
2023-04-13T03:58:20.837Z,1.13
2023-04-13T04:00:49.276Z,0.80
2023-04-13T04:03:26.751Z,1.17
2023-04-13T04:06:01.112Z,1.70
2023-04-13T04:08:31.213Z,1.00
2023-04-13T04:11:04.406Z,1.07
2023-04-13T04:48:11.861Z,1.70
2023-04-13T05:51:13.616Z,1.30
2023-04-13T05:53:41.863Z,1.30
2023-04-13T05:56:11.647Z,1.50
2023-04-13T05:58:41.616Z,7.23
2023-04-13T06:01:26.147Z,2.00
2023-04-13T06:03:56.056Z,1.83
2023-04-13T06:06:26.589Z,1.67
2023-04-13T06:08:55.512Z,2.07
2023-04-13T06:11:26.090Z,2.50
2023-04-13T06:13:54.528Z,1.73
2023-04-13T06:16:24.151Z,1.50
2023-04-13T06:22:02.765Z,1.83
2023-04-13T06:24:35.437Z,1.90
2023-04-13T06:27:04.968Z,2.67
2023-04-13T06:29:34.930Z,2.83
2023-04-13T06:34:56.103Z,2.90
2023-04-13T06:37:27.488Z,10.17
2023-04-13T06:39:58.799Z,6.37
2023-04-13T06:42:27.100Z,2.80
2023-04-13T06:45:23.167Z,1.80
2023-04-13T06:47:54.023Z,2.30
2023-04-13T06:50:22.313Z,2.13
2023-04-13T06:52:51.789Z,2.90
2023-04-13T06:55:41.695Z,1.63
2023-04-13T06:58:10.830Z,2.07
2023-04-13T07:00:39.203Z,2.23
2023-04-13T07:05:54.524Z,1.83
2023-04-13T07:08:24.877Z,2.10
2023-04-13T07:10:57.736Z,1.83
2023-04-13T07:13:46.022Z,2.10
2023-04-13T07:16:16.498Z,2.60
2023-04-13T07:18:48.538Z,2.17
2023-04-13T07:21:16.617Z,2.00
2023-04-13T07:23:57.565Z,2.73
2023-04-13T07:26:27.199Z,2.47
2023-04-13T07:28:56.131Z,1.90
2023-04-13T07:31:28.935Z,1.70
2023-04-13T07:33:57.479Z,2.13
2023-04-13T07:36:33.634Z,1.60
2023-04-13T07:39:09.656Z,1.53
2023-04-13T07:41:44.235Z,2.20
2023-04-13T07:44:15.960Z,2.07
2023-04-13T07:46:46.024Z,1.90
2023-04-13T07:49:14.245Z,1.73
2023-04-13T07:51:43.401Z,2.20
2023-04-13T07:54:15.139Z,1.97
2023-04-13T07:56:48.361Z,2.00
2023-04-13T07:59:20.024Z,2.00
2023-04-13T08:01:48.961Z,2.10
2023-04-13T08:04:36.089Z,2.20
2023-04-13T08:07:06.621Z,1.60
2023-04-13T08:09:40.425Z,1.80
2023-04-13T08:12:10.997Z,1.73
2023-04-13T08:14:42.995Z,1.97
2023-04-13T08:17:13.146Z,1.93
2023-04-13T08:19:44.594Z,1.33
2023-04-13T08:22:15.996Z,1.77
2023-04-13T08:24:46.652Z,1.90
2023-04-13T08:27:15.009Z,1.73
2023-04-13T08:29:43.002Z,2.20
2023-04-13T08:32:11.809Z,1.83
2023-04-13T08:34:40.119Z,2.23
2023-04-13T08:37:08.927Z,2.50
2023-04-13T08:39:38.733Z,1.87
2023-04-13T08:42:08.992Z,2.07
2023-04-13T08:44:42.356Z,2.33
2023-04-13T08:47:11.344Z,1.80
2023-04-13T08:49:43.201Z,2.10
2023-04-13T08:52:20.520Z,2.27
2023-04-13T08:54:52.151Z,1.70
2023-04-13T08:57:27.829Z,2.13
2023-04-13T08:59:59.312Z,2.33
2023-04-13T09:02:38.365Z,2.53
2023-04-13T09:05:16.658Z,2.00
2023-04-13T09:07:54.133Z,2.57
2023-04-13T09:10:25.863Z,2.10
2023-04-13T09:12:55.912Z,2.50
2023-04-13T09:15:24.410Z,2.37
2023-04-13T09:18:13.105Z,2.40
2023-04-13T09:20:58.639Z,1.73
2023-04-13T09:23:28.168Z,2.33
2023-04-13T09:26:07.019Z,2.13
2023-04-13T09:28:47.878Z,2.37
2023-04-13T09:31:16.642Z,2.43
2023-04-13T09:33:47.166Z,2.70
2023-04-13T09:36:17.055Z,2.07
2023-04-13T09:38:46.626Z,2.10
2023-04-13T09:41:14.681Z,1.87
2023-04-13T09:43:44.708Z,1.90
2023-04-13T09:46:16.235Z,2.07
2023-04-13T09:48:44.466Z,2.37
2023-04-13T09:51:13.403Z,2.13
2023-04-13T09:53:43.564Z,1.73
2023-04-13T09:56:11.803Z,2.17
2023-04-13T09:58:46.095Z,1.73
2023-04-13T10:01:15.612Z,2.40
2023-04-13T10:03:44.943Z,1.80
2023-04-13T10:06:13.319Z,2.03
2023-04-13T10:08:42.774Z,1.87
2023-04-13T10:11:15.167Z,1.83
2023-04-13T10:13:52.995Z,1.80
2023-04-13T10:16:48.120Z,1.63
2023-04-13T10:19:23.015Z,2.27
2023-04-13T10:21:54.833Z,1.63
2023-04-13T10:24:25.437Z,1.70
2023-04-13T10:26:56.453Z,1.80
2023-04-13T10:29:35.158Z,2.10
2023-04-13T10:32:05.213Z,2.00
2023-04-13T10:34:36.211Z,1.77
2023-04-13T10:37:06.546Z,1.80
2023-04-13T10:39:37.696Z,2.10
2023-04-13T10:42:08.267Z,2.00
2023-04-13T10:44:46.213Z,1.60
2023-04-13T10:47:15.485Z,1.60
2023-04-13T10:49:46.047Z,1.33
2023-04-13T10:52:14.952Z,1.50
2023-04-13T10:54:44.433Z,1.37
2023-04-13T10:57:13.619Z,1.87
2023-04-13T10:59:58.156Z,3.40
2023-04-13T11:02:33.028Z,1.77
2023-04-13T11:05:02.348Z,1.23
2023-04-13T11:07:31.495Z,1.40
2023-04-13T11:12:31.116Z,2.43
2023-04-13T11:15:00.789Z,1.93
2023-04-13T11:17:29.397Z,2.33
2023-04-13T11:19:59.437Z,1.90
2023-04-13T11:22:28.818Z,1.60
2023-04-13T11:25:09.872Z,2.00
2023-04-13T11:27:38.778Z,1.87
2023-04-13T11:30:11.147Z,2.27
2023-04-13T11:32:43.507Z,1.60
2023-04-13T11:35:14.905Z,1.70
2023-04-13T11:37:45.166Z,1.60
2023-04-13T11:40:16.830Z,1.60
2023-04-13T11:42:46.205Z,1.70
2023-04-13T11:45:19.007Z,1.90
2023-04-13T11:47:49.974Z,1.37
2023-04-13T11:50:19.748Z,1.60
2023-04-13T11:52:49.948Z,1.60
2023-04-13T11:55:23.740Z,1.37
2023-04-13T11:57:53.307Z,1.40
2023-04-13T12:00:26.981Z,1.57
2023-04-13T12:05:30.140Z,1.87
2023-04-13T12:08:00.551Z,1.50
2023-04-13T12:13:17.237Z,1.40
2023-04-13T12:18:26.072Z,1.60
2023-04-13T12:20:56.727Z,1.73
2023-04-13T12:23:27.970Z,1.40
2023-04-13T12:25:58.179Z,1.33
2023-04-13T12:28:34.512Z,1.03
2023-04-13T12:31:10.178Z,1.20
2023-04-13T12:33:38.826Z,1.10
2023-04-13T12:36:08.091Z,1.20
2023-04-13T12:38:36.845Z,1.40
2023-04-13T12:41:08.896Z,0.95
2023-04-13T12:43:37.645Z,1.50
2023-04-13T12:46:07.087Z,1.40
2023-04-13T12:48:35.217Z,0.90
2023-04-13T12:51:03.547Z,0.90
2023-04-13T12:53:31.605Z,0.85
2023-04-13T12:55:59.638Z,0.70
2023-04-13T12:58:28.106Z,1.27
2023-04-13T13:00:56.410Z,1.27
2023-04-13T13:03:26.041Z,1.38
2023-04-13T13:05:54.128Z,1.30
2023-04-13T13:08:22.247Z,1.50
2023-04-13T13:10:50.834Z,1.20
2023-04-13T13:13:19.350Z,1.55
2023-04-13T13:15:47.611Z,1.33
2023-04-13T13:18:16.678Z,1.67
2023-04-13T13:20:49.146Z,1.65
2023-04-13T13:23:17.406Z,1.63
2023-04-13T13:25:56.905Z,1.35
2023-04-13T13:28:32.613Z,1.60
2023-04-13T13:31:00.941Z,1.35
2023-04-13T13:33:28.959Z,1.70
2023-04-13T13:35:59.231Z,1.92
2023-04-13T13:38:27.617Z,1.35
2023-04-13T13:40:56.108Z,1.25
2023-04-13T13:43:24.107Z,1.67
2023-04-13T13:45:52.571Z,1.73
2023-04-13T13:48:23.626Z,1.50
2023-04-13T13:51:02.091Z,1.70
2023-04-13T13:53:31.902Z,2.23
2023-04-13T13:56:01.789Z,2.17
2023-04-13T13:58:29.900Z,2.07
2023-04-13T14:00:58.011Z,2.00
2023-04-13T14:03:27.476Z,2.13
2023-04-13T14:05:55.895Z,1.77
2023-04-13T14:08:25.530Z,1.50
2023-04-13T14:10:55.011Z,1.70
2023-04-13T14:13:23.259Z,1.60
2023-04-13T14:15:52.010Z,1.53
2023-04-13T14:18:20.308Z,1.90
2023-04-13T14:20:48.851Z,2.17
2023-04-13T14:23:17.584Z,2.30
2023-04-13T14:25:46.958Z,2.57
2023-04-13T14:28:15.094Z,2.13
2023-04-13T14:30:43.098Z,2.73
2023-04-13T14:33:13.624Z,2.20
2023-04-13T14:35:42.005Z,2.67
2023-04-13T14:38:11.402Z,2.87
2023-04-13T14:40:39.890Z,2.77
2023-04-13T14:43:09.798Z,1.93
2023-04-13T14:45:38.522Z,2.22
2023-04-13T14:48:07.478Z,2.25
2023-04-13T14:50:38.661Z,1.60
2023-04-13T14:53:07.766Z,1.80
2023-04-13T14:55:36.210Z,1.85
2023-04-13T14:58:05.296Z,2.35
2023-04-13T15:00:41.097Z,1.60
2023-04-13T15:03:12.014Z,1.58
2023-04-13T15:05:41.654Z,1.70
2023-04-13T15:08:11.620Z,2.30
2023-04-13T15:10:40.221Z,2.25
2023-04-13T15:13:08.421Z,2.00
2023-04-13T15:15:40.364Z,2.20
2023-04-13T15:18:09.349Z,1.73
2023-04-13T15:20:37.528Z,1.90
2023-04-13T15:23:06.265Z,1.73
2023-04-13T15:25:34.654Z,1.97
2023-04-13T15:28:03.405Z,2.13
2023-04-13T15:30:34.516Z,1.50
2023-04-13T15:33:05.282Z,1.90
2023-04-13T15:35:36.348Z,1.37
2023-04-13T15:38:05.417Z,1.23
2023-04-13T15:40:38.059Z,1.40
2023-04-13T15:43:07.291Z,1.90
2023-04-13T15:45:36.414Z,2.40
2023-04-13T15:48:07.065Z,1.70
2023-04-13T15:50:35.167Z,1.77
2023-04-13T15:53:03.247Z,2.20
2023-04-13T15:55:31.306Z,4.17
2023-04-13T15:57:59.808Z,2.60
2023-04-13T16:00:28.973Z,2.87
2023-04-13T16:02:57.806Z,2.53
2023-04-13T16:05:27.735Z,1.67
2023-04-13T16:07:57.584Z,1.43
2023-04-13T16:10:25.869Z,1.83
2023-04-13T16:12:55.166Z,1.90
2023-04-13T16:15:24.101Z,1.83
2023-04-13T16:17:53.989Z,2.07
2023-04-13T16:20:22.583Z,2.07
2023-04-13T16:22:54.681Z,3.03
2023-04-13T16:25:23.846Z,2.90
2023-04-13T16:27:52.491Z,2.30
2023-04-13T16:30:22.790Z,2.17
2023-04-13T16:32:53.630Z,2.53
2023-04-13T16:35:22.237Z,2.20
2023-04-13T16:37:51.984Z,1.70
2023-04-13T16:40:20.709Z,1.80
2023-04-13T16:42:49.367Z,1.10
2023-04-13T16:45:17.935Z,4.47
2023-04-13T16:47:46.547Z,4.37
2023-04-13T16:50:14.675Z,4.27
2023-04-13T16:52:42.948Z,4.13
2023-04-13T16:55:16.663Z,3.73
2023-04-13T16:57:45.647Z,3.23
2023-04-13T17:00:15.502Z,3.97
2023-04-13T17:02:44.315Z,4.30
2023-04-13T17:05:13.909Z,3.00
2023-04-13T17:07:46.700Z,5.70
2023-04-13T17:10:18.388Z,3.03
2023-04-13T17:12:48.531Z,4.20
2023-04-13T17:15:16.736Z,4.00
2023-04-13T17:17:44.842Z,8.30
2023-04-13T17:20:15.189Z,7.23
2023-04-13T17:22:45.187Z,5.90
2023-04-13T17:25:13.796Z,6.33
2023-04-13T17:27:43.216Z,9.87
2023-04-13T17:30:12.960Z,13.60
2023-04-13T17:32:41.507Z,12.83
2023-04-13T17:35:10.243Z,12.93
2023-04-13T17:37:38.633Z,19.83
2023-04-13T17:40:08.717Z,24.50
2023-04-13T17:42:36.960Z,14.00
2023-04-13T17:45:07.901Z,8.30
2023-04-13T17:47:35.960Z,7.57
2023-04-13T17:50:04.230Z,4.97
2023-04-13T17:52:32.270Z,4.37
2023-04-13T17:55:01.364Z,5.10
2023-04-13T17:57:30.219Z,5.20
2023-04-13T17:59:58.947Z,5.93
2023-04-13T18:02:28.448Z,6.57
2023-04-13T18:04:58.324Z,4.93
2023-04-13T18:07:27.201Z,7.03
2023-04-13T18:09:55.688Z,7.80
2023-04-13T18:12:23.737Z,5.87
2023-04-13T18:14:51.997Z,4.40
2023-04-13T18:17:22.010Z,4.40
2023-04-13T18:19:54.722Z,4.27
2023-04-13T18:22:23.319Z,3.23
2023-04-13T18:24:51.444Z,2.93
2023-04-13T18:27:19.447Z,3.30
2023-04-13T18:29:47.893Z,2.93
2023-04-13T18:32:17.232Z,4.20
2023-04-13T18:34:45.346Z,7.30
2023-04-13T18:37:15.468Z,7.13
2023-04-13T18:39:43.795Z,4.10
2023-04-13T18:42:11.830Z,4.00
2023-04-13T18:44:40.129Z,3.70
2023-04-13T18:47:08.392Z,3.83
2023-04-13T18:49:36.839Z,4.00
2023-04-13T18:52:05.001Z,4.23
2023-04-13T18:54:35.334Z,8.23
2023-04-13T18:57:04.773Z,23.33
2023-04-13T18:59:32.850Z,8.50
2023-04-13T19:02:01.848Z,10.13
2023-04-13T19:04:32.994Z,8.70
2023-04-13T19:07:01.156Z,6.73
2023-04-13T19:09:31.751Z,8.17
2023-04-13T19:12:03.326Z,8.97
2023-04-13T19:14:31.468Z,10.50
2023-04-13T19:17:00.659Z,12.17
2023-04-13T19:19:28.763Z,14.63
2023-04-13T19:21:57.564Z,11.03
2023-04-13T19:24:27.568Z,7.73
2023-04-13T19:26:56.820Z,7.47
2023-04-13T19:29:29.967Z,9.60
2023-04-13T19:31:58.955Z,11.17
2023-04-13T19:34:27.513Z,10.67
2023-04-13T19:36:55.874Z,9.07
2023-04-13T19:39:24.436Z,5.60
2023-04-13T19:41:53.527Z,7.67
2023-04-13T19:44:22.096Z,8.40
2023-04-13T19:46:51.559Z,4.37
2023-04-13T19:49:19.611Z,6.23
2023-04-13T19:51:48.372Z,5.83
2023-04-13T19:54:17.538Z,4.43
2023-04-13T19:56:45.822Z,3.70
2023-04-13T19:59:14.563Z,4.10
2023-04-13T20:01:45.835Z,4.13
2023-04-13T20:04:15.912Z,5.00
2023-04-13T20:06:44.029Z,5.73
2023-04-13T20:09:14.112Z,13.53
2023-04-13T20:11:42.618Z,8.37
2023-04-13T20:14:12.748Z,3.47
2023-04-13T20:16:41.454Z,3.20
2023-04-13T20:19:10.384Z,7.33
2023-04-13T20:21:42.333Z,19.43
2023-04-13T20:24:10.499Z,12.73
2023-04-13T20:26:40.135Z,25.97
2023-04-13T20:29:08.228Z,35.47
2023-04-13T20:31:37.828Z,39.50
2023-04-13T20:34:09.439Z,10.67
2023-04-13T20:36:39.275Z,4.53
2023-04-13T20:39:09.845Z,3.53
2023-04-13T20:41:38.883Z,2.97
2023-04-13T20:44:09.815Z,4.80
2023-04-13T20:46:41.850Z,7.23
2023-04-13T20:49:11.822Z,11.30
2023-04-13T20:51:42.494Z,9.20
2023-04-13T20:54:10.515Z,8.57
2023-04-13T20:56:38.587Z,7.37
2023-04-13T20:59:07.392Z,7.23
2023-04-13T21:01:36.362Z,5.73
2023-04-13T21:04:04.501Z,5.13
2023-04-13T21:06:35.008Z,5.00
2023-04-13T21:09:05.973Z,5.90
2023-04-13T21:11:34.402Z,5.50
2023-04-13T21:14:02.811Z,4.70
2023-04-13T21:16:31.372Z,4.87
2023-04-13T21:18:59.639Z,4.63
2023-04-13T21:21:28.047Z,3.93
2023-04-13T21:23:56.786Z,4.50
2023-04-13T21:26:26.657Z,3.90
2023-04-13T21:28:54.795Z,3.93
2023-04-13T21:31:22.912Z,3.50
2023-04-13T21:33:51.376Z,4.23
2023-04-13T21:38:50.803Z,3.33
2023-04-13T21:41:21.668Z,4.47
2023-04-13T21:43:51.027Z,2.87
2023-04-13T21:46:20.480Z,2.80
2023-04-13T21:48:48.684Z,2.60
2023-04-13T21:51:17.172Z,2.47
2023-04-13T21:53:45.328Z,2.60
2023-04-13T21:56:13.778Z,2.60
2023-04-13T21:58:44.493Z,2.70
2023-04-13T22:01:15.606Z,2.50
2023-04-13T22:03:47.813Z,2.43
2023-04-13T22:06:16.448Z,2.43
2023-04-13T22:08:45.233Z,2.20
2023-04-13T22:11:13.675Z,2.53
2023-04-13T22:13:42.572Z,2.23
2023-04-13T22:16:10.899Z,2.23
2023-04-13T22:18:40.659Z,2.70
2023-04-13T22:21:08.744Z,2.60
2023-04-13T22:23:37.209Z,2.30
2023-04-13T22:26:06.289Z,2.13
2023-04-13T22:28:34.281Z,1.97
2023-04-13T22:31:08.268Z,2.30
2023-04-13T22:33:37.352Z,2.37
2023-04-13T22:36:17.334Z,1.93
2023-04-13T22:38:45.388Z,2.20
2023-04-13T22:41:13.628Z,2.40
2023-04-13T22:43:42.096Z,1.80
2023-04-13T22:46:10.207Z,1.93
2023-04-13T22:48:38.446Z,2.13
2023-04-13T22:51:08.061Z,2.07
2023-04-13T22:53:36.113Z,2.13
2023-04-13T22:56:04.338Z,1.90
2023-04-13T22:58:32.377Z,2.07
2023-04-13T23:01:01.122Z,2.00
2023-04-13T23:03:29.710Z,1.93
2023-04-13T23:05:57.938Z,2.33
2023-04-13T23:08:29.217Z,1.90
2023-04-13T23:10:57.542Z,1.63
2023-04-13T23:13:26.603Z,1.93
2023-04-13T23:16:01.339Z,2.17
2023-04-13T23:18:29.789Z,2.00
